This is the latest recevied weather packets stored in our database for station/object 4S6DRJ-13. If no packets are shown the sender has not sent any weather packets the latest 10 day(s).
| Time | Temp. | Humidity | Pressure | Rain* | Wind** | Luminosity | Snow |
|---|---|---|---|---|---|---|---|
| 1777609350 | 31.11° C | 74% | 1009.2 hPa | 0 mm | 1.34 m/s, 156° | 607 W/m² | - |
| 1777609289 | 31.11° C | 74% | 1009.2 hPa | 0 mm | 2.24 m/s, 191° | 586 W/m² | - |
| 1777609228 | 31.11° C | 74% | 1009.1 hPa | 0 mm | 1.79 m/s, 188° | 575 W/m² | - |
| 1777609167 | 31.11° C | 75% | 1009.2 hPa | 0 mm | 1.79 m/s, 207° | 511 W/m² | - |
| 1777609106 | 31.11° C | 75% | 1009 hPa | 0 mm | 0.89 m/s, 159° | 527 W/m² | - |
| 1777609045 | 31.11° C | 75% | 1009.2 hPa | 0 mm | 2.68 m/s, 156° | 508 W/m² | - |
| 1777608984 | 31.11° C | 75% | 1009 hPa | 0 mm | 1.34 m/s, 157° | 496 W/m² | - |
| 1777608923 | 31.11° C | 75% | 1009 hPa | 0 mm | 1.34 m/s, 249° | 500 W/m² | - |
| 1777608862 | 31.11° C | 76% | 1009.2 hPa | 0 mm | 1.79 m/s, 187° | 509 W/m² | - |
| 1777608801 | 31.11° C | 75% | 1009.1 hPa | 0 mm | 0.89 m/s, 171° | 548 W/m² | - |
| 1777608740 | 31.11° C | 76% | 1009.1 hPa | 0 mm | 0.45 m/s, 158° | 535 W/m² | - |
| 1777608680 | 31.11° C | 76% | 1009.1 hPa | 0 mm | 0.45 m/s, 285° | 358 W/m² | - |
| 1777608618 | 31.11° C | 75% | 1009.4 hPa | 0 mm | 2.24 m/s, 182° | 400 W/m² | - |
| 1777608557 | 31.11° C | 76% | 1009.2 hPa | 0 mm | 0.89 m/s, 164° | 524 W/m² | - |
| 1777608497 | 30.56° C | 76% | 1009.2 hPa | 0 mm | 1.79 m/s, 194° | 536 W/m² | - |
| 1777608435 | 30.56° C | 76% | 1009.4 hPa | 0 mm | 0.89 m/s, 202° | 553 W/m² | - |
| 1777608374 | 30.56° C | 76% | 1009.3 hPa | 0 mm | 1.79 m/s, 179° | 560 W/m² | - |
| 1777608313 | 30.56° C | 76% | 1009.4 hPa | 0 mm | 1.34 m/s, 185° | 559 W/m² | - |
| 1777608252 | 30.56° C | 76% | 1009.2 hPa | 0 mm | 2.24 m/s, 171° | 535 W/m² | - |
| 1777608191 | 30.56° C | 77% | 1009.4 hPa | 0 mm | 0.89 m/s, 153° | 524 W/m² | - |
| 1777608130 | 30.56° C | 77% | 1009.3 hPa | 0 mm | 2.68 m/s, 176° | 514 W/m² | - |
| 1777608069 | 30.56° C | 77% | 1009.3 hPa | 0 mm | 0.45 m/s, 224° | 497 W/m² | - |
| 1777608008 | 30.56° C | 77% | 1009.2 hPa | 0 mm | 1.34 m/s, 145° | 493 W/m² | - |
| 1777607947 | 30.56° C | 77% | 1009.4 hPa | 0 mm | 0.89 m/s, 192° | 494 W/m² | - |
| 1777607886 | 30.56° C | 77% | 1009.2 hPa | 0 mm | 1.79 m/s, 155° | 488 W/m² | - |
* Rain latest hour (hover to see other rain measurements)
** Current wind speed in m/s (hover to see current wind gust speed)